23:50
Airports
Links
Donate
Help keep this website running!
PayPal
Bitcoin
METAR
KOWD 192253Z 18009KT 10SM CLR 18/08 A3001 RMK AO2 SLP163 T01780083
Current Weather Conditions at KOWD
VFR 22:53:00 19-10-17
Automated station
Altimeter:30.01 hg
Temp:17.8°c 63°f
Dew point:8.3°c 46°f
Wind:9 knots, 10.4 mph, 5 m/s, from 180°
Visibility:10.0 statute miles
(CLR) Clear
Past METAR reports
VFR 21:53:00 19-10-17
Automated station
Altimeter:30.01 hg
Temp:19.4°c 66°f
Dew point:8.9°c 46°f
Wind:9 knots, 10.4 mph, 5 m/s, from 180°
Visibility:10.0 statute miles
(CLR) Clear
KOWD 192153Z 18009KT 10SM CLR 19/09 A3001 RMK AO2 SLP163 T01940089
VFR 20:53:00 19-10-17
Automated station
Altimeter:30.03 hg
Temp:22.2°c 72°f
Dew point:7.8°c 45°f
Wind:8 knots, 9.2 mph, 4 m/s, from 200°
Visibility:10.0 statute miles
(CLR) Clear
KOWD 192053Z 20008G18KT 10SM CLR 22/08 A3003 RMK AO2 SLP168 T02220078 56021
VFR 19:53:00 19-10-17
Automated station
Altimeter:30.05 hg
Temp:23.3°c 73°f
Dew point:6.1°c 43°f
Wind:11 knots, 12.7 mph, 6 m/s, from 200°
Visibility:10.0 statute miles
(CLR) Clear
KOWD 191953Z 20011G21KT 10SM CLR 23/06 A3005 RMK AO2 SLP175 T02330061
VFR 18:53:00 19-10-17
Automated station
Altimeter:30.07 hg
Temp:23.9°c 73°f
Dew point:7.2°c 45°f
Wind:13 knots, 15 mph, 7 m/s, from 180°
Visibility:10.0 statute miles
(CLR) Clear
KOWD 191853Z 18013KT 10SM CLR 24/07 A3007 RMK AO2 SLP181 T02390072
VFR 17:53:00 19-10-17
Automated station
Altimeter:30.09 hg
Temp:24.4°c 75°f
Dew point:7.8°c 45°f
Wind:12 knots, 13.8 mph, 6 m/s, from 210°
Visibility:10.0 statute miles
(CLR) Clear
KOWD 191753Z 21012G18KT 10SM CLR 24/08 A3009 RMK AO2 SLP189 T02440078 10244 20050 58035
TAF
No TAF for KOWD
Forecast at KOWD
No Forecast Reports for KOWD